BAW4LV KLAS-EGLL
Flight info
| Callsign | BAW4LV |
|---|---|
| Flight time | N/A |
| Altitude | 35000 |
| Route | RATPK3 FRNCK DCT MLF DCT FBR DCT DIK Q945 SEGAP DCT KAIIN/N0498F370 DCT 57N090W 62N080W 66N070W/M084F370 DCT DARUB DCT 67N050W/M084F390 67N040W 65N030W 63N020W DCT BALIX/N0481F390 DCT NINEX DCT AKOMU DCT VAMEB DCT NUGRA NUGRA2H |
| Aircraft | A35K/H-SBDE1E2E3GHIJ1J3J4J5J6M1M2P2RWXYZ/LB1D1 |
Departure
| Time | 2026-05-03 22:14 |
|---|---|
| Airport | Harry Reid International Airport (KLAS) |
Arrival
| Time | N/A |
|---|---|
| Airport | London Heathrow Airport (EGLL) |
| Time | Latitude | Longitude | Altitude | Speed | Heading |
|---|---|---|---|---|---|
| 2026-05-03 21:28 | 36.08514 | -115.13364 | 2090 ft | 0 kts | 1° |
| 2026-05-03 21:57 | 36.08512 | -115.13362 | 2089 ft | 4 kts | 21° |
| 2026-05-03 21:57 | 36.08511 | -115.13371 | 2089 ft | 4 kts | 336° |
| 2026-05-03 21:57 | 36.08497 | -115.13372 | 2090 ft | 3 kts | 35° |
| 2026-05-03 21:57 | 36.08476 | -115.13392 | 2091 ft | 4 kts | 41° |
| 2026-05-03 21:58 | 36.08458 | -115.13416 | 2092 ft | 4 kts | 71° |
| 2026-05-03 21:58 | 36.08456 | -115.13443 | 2093 ft | 4 kts | 100° |
| 2026-05-03 21:58 | 36.08467 | -115.13471 | 2091 ft | 4 kts | 131° |
| 2026-05-03 21:58 | 36.08477 | -115.13486 | 2090 ft | 1 kts | 125° |
| 2026-05-03 22:01 | 36.08464 | -115.13463 | 2109 ft | 7 kts | 128° |
| 2026-05-03 22:01 | 36.08426 | -115.13411 | 2093 ft | 8 kts | 131° |
| 2026-05-03 22:02 | 36.08396 | -115.13371 | 2095 ft | 5 kts | 135° |
| 2026-05-03 22:02 | 36.08367 | -115.13336 | 2096 ft | 9 kts | 135° |
| 2026-05-03 22:02 | 36.08289 | -115.13297 | 2102 ft | 15 kts | 174° |
| 2026-05-03 22:02 | 36.08190 | -115.13292 | 2109 ft | 12 kts | 181° |
| 2026-05-03 22:03 | 36.08128 | -115.13293 | 2114 ft | 7 kts | 179° |
| 2026-05-03 22:03 | 36.08071 | -115.13293 | 2118 ft | 11 kts | 180° |
| 2026-05-03 22:03 | 36.07970 | -115.13292 | 2125 ft | 17 kts | 180° |
| 2026-05-03 22:03 | 36.07864 | -115.13292 | 2129 ft | 14 kts | 180° |
| 2026-05-03 22:04 | 36.07809 | -115.13292 | 2131 ft | 6 kts | 180° |
| 2026-05-03 22:04 | 36.07767 | -115.13304 | 2132 ft | 8 kts | 221° |
| 2026-05-03 22:04 | 36.07754 | -115.13398 | 2133 ft | 16 kts | 269° |
| 2026-05-03 22:04 | 36.07754 | -115.13532 | 2132 ft | 12 kts | 270° |
| 2026-05-03 22:05 | 36.07754 | -115.13615 | 2131 ft | 7 kts | 270° |
| 2026-05-03 22:05 | 36.07754 | -115.13684 | 2130 ft | 12 kts | 270° |
| 2026-05-03 22:05 | 36.07753 | -115.13817 | 2131 ft | 16 kts | 270° |
| 2026-05-03 22:05 | 36.07753 | -115.13962 | 2129 ft | 18 kts | 269° |
| 2026-05-03 22:06 | 36.07753 | -115.14129 | 2126 ft | 21 kts | 270° |
| 2026-05-03 22:06 | 36.07753 | -115.14309 | 2126 ft | 21 kts | 271° |
| 2026-05-03 22:06 | 36.07761 | -115.14488 | 2130 ft | 21 kts | 274° |
| 2026-05-03 22:06 | 36.07775 | -115.14676 | 2129 ft | 22 kts | 275° |
| 2026-05-03 22:07 | 36.07788 | -115.14856 | 2130 ft | 20 kts | 275° |
| 2026-05-03 22:07 | 36.07800 | -115.15022 | 2131 ft | 20 kts | 275° |
| 2026-05-03 22:07 | 36.07804 | -115.15195 | 2132 ft | 18 kts | 270° |
| 2026-05-03 22:07 | 36.07826 | -115.15301 | 2134 ft | 10 kts | 328° |
| 2026-05-03 22:08 | 36.07901 | -115.15348 | 2134 ft | 17 kts | 335° |
| 2026-05-03 22:08 | 36.08033 | -115.15424 | 2132 ft | 23 kts | 335° |
| 2026-05-03 22:08 | 36.08178 | -115.15507 | 2131 ft | 24 kts | 335° |
| 2026-05-03 22:08 | 36.08332 | -115.15595 | 2129 ft | 25 kts | 334° |
| 2026-05-03 22:09 | 36.08487 | -115.15685 | 2128 ft | 25 kts | 335° |
| 2026-05-03 22:09 | 36.08638 | -115.15773 | 2129 ft | 19 kts | 334° |
| 2026-05-03 22:09 | 36.08768 | -115.15757 | 2129 ft | 23 kts | 24° |
| 2026-05-03 22:10 | 36.09135 | -115.15548 | 2129 ft | 27 kts | 25° |
| 2026-05-03 22:10 | 36.09303 | -115.15451 | 2130 ft | 26 kts | 25° |
| 2026-05-03 22:10 | 36.09467 | -115.15357 | 2132 ft | 26 kts | 25° |
| 2026-05-03 22:10 | 36.09636 | -115.15261 | 2129 ft | 27 kts | 25° |
| 2026-05-03 22:11 | 36.09705 | -115.15222 | 2128 ft | 0 kts | 22° |
| 2026-05-03 22:12 | 36.09710 | -115.15219 | 2128 ft | 4 kts | 22° |
| 2026-05-03 22:12 | 36.09774 | -115.15213 | 2126 ft | 14 kts | 337° |
| 2026-05-03 22:12 | 36.09824 | -115.15312 | 2129 ft | 13 kts | 295° |
| 2026-05-03 22:12 | 36.09806 | -115.15389 | 2130 ft | 8 kts | 217° |
| 2026-05-03 22:13 | 36.09785 | -115.15401 | 2131 ft | 3 kts | 203° |
| 2026-05-03 22:13 | 36.09598 | -115.15510 | 2132 ft | 59 kts | 205° |
| 2026-05-03 22:13 | 36.09271 | -115.15694 | 2131 ft | 95 kts | 206° |
| 2026-05-03 22:13 | 36.08193 | -115.16311 | 2130 ft | 157 kts | 204° |
| 2026-05-03 22:14 | 36.07530 | -115.16703 | 2406 ft | 157 kts | 202° |
| 2026-05-03 22:14 | 36.06593 | -115.17316 | 2933 ft | 151 kts | 208° |
| 2026-05-03 22:14 | 36.05967 | -115.18843 | 3524 ft | 167 kts | 264° |
| 2026-05-03 22:14 | 36.06195 | -115.20273 | 3924 ft | 171 kts | 277° |
| 2026-05-03 22:15 | 36.06394 | -115.21238 | 4143 ft | 172 kts | 275° |
| 2026-05-03 22:15 | 36.06669 | -115.22662 | 4483 ft | 172 kts | 275° |
| 2026-05-03 22:15 | 36.06932 | -115.24114 | 4777 ft | 174 kts | 272° |
| 2026-05-03 22:15 | 36.07188 | -115.25594 | 5032 ft | 177 kts | 272° |
| 2026-05-03 22:16 | 36.07489 | -115.27085 | 5308 ft | 186 kts | 281° |
| 2026-05-03 22:16 | 36.08340 | -115.28418 | 5376 ft | 217 kts | 326° |
| 2026-05-03 22:16 | 36.09823 | -115.29022 | 5598 ft | 232 kts | 348° |
| 2026-05-03 22:16 | 36.11462 | -115.29403 | 5855 ft | 248 kts | 349° |
| 2026-05-03 22:17 | 36.13236 | -115.29764 | 6014 ft | 269 kts | 355° |
| 2026-05-03 22:17 | 36.15095 | -115.29372 | 6321 ft | 275 kts | 31° |
| 2026-05-03 22:17 | 36.16529 | -115.27814 | 6637 ft | 280 kts | 61° |
| 2026-05-03 22:17 | 36.17473 | -115.25672 | 7086 ft | 285 kts | 71° |
| 2026-05-03 22:18 | 36.18200 | -115.23374 | 7713 ft | 289 kts | 74° |
| 2026-05-03 22:18 | 36.18911 | -115.21019 | 8380 ft | 293 kts | 74° |
| 2026-05-03 22:18 | 36.19521 | -115.18611 | 9103 ft | 293 kts | 85° |
| 2026-05-03 22:18 | 36.19667 | -115.16141 | 9806 ft | 291 kts | 95° |
| 2026-05-03 22:19 | 36.19659 | -115.13607 | 10380 ft | 299 kts | 95° |
| 2026-05-03 22:19 | 36.19637 | -115.10960 | 10700 ft | 317 kts | 95° |
| 2026-05-03 22:19 | 36.19622 | -115.08154 | 10946 ft | 335 kts | 95° |
| 2026-05-03 22:19 | 36.19615 | -115.05202 | 11240 ft | 351 kts | 94° |
| 2026-05-03 22:20 | 36.19612 | -115.02109 | 11532 ft | 366 kts | 94° |
| 2026-05-03 22:20 | 36.19612 | -114.98899 | 11919 ft | 379 kts | 94° |
| 2026-05-03 22:20 | 36.19613 | -114.95615 | 12558 ft | 382 kts | 94° |
| 2026-05-03 22:20 | 36.19626 | -114.92302 | 13104 ft | 388 kts | 92° |
| 2026-05-03 22:21 | 36.20005 | -114.88946 | 13647 ft | 400 kts | 78° |
| 2026-05-03 22:21 | 36.21173 | -114.85810 | 14127 ft | 413 kts | 59° |
| 2026-05-03 22:21 | 36.22960 | -114.82935 | 14693 ft | 418 kts | 53° |
| 2026-05-03 22:21 | 36.24818 | -114.80189 | 15186 ft | 423 kts | 53° |
| 2026-05-03 22:22 | 36.26717 | -114.77382 | 15751 ft | 426 kts | 53° |
| 2026-05-03 22:22 | 36.28619 | -114.74549 | 16313 ft | 430 kts | 53° |
| 2026-05-03 22:22 | 36.30535 | -114.71680 | 16864 ft | 433 kts | 53° |
| 2026-05-03 22:22 | 36.32461 | -114.68777 | 17406 ft | 437 kts | 53° |
| 2026-05-03 22:23 | 36.34402 | -114.65844 | 17930 ft | 441 kts | 53° |
| 2026-05-03 22:23 | 36.36408 | -114.62931 | 18416 ft | 447 kts | 48° |
| 2026-05-03 22:23 | 36.38749 | -114.60361 | 18865 ft | 452 kts | 39° |
| 2026-05-03 22:23 | 36.41248 | -114.57981 | 19332 ft | 457 kts | 38° |
| 2026-05-03 22:24 | 36.43789 | -114.55590 | 19805 ft | 461 kts | 38° |
| 2026-05-03 22:24 | 36.46353 | -114.53174 | 20314 ft | 464 kts | 38° |
| 2026-05-03 22:24 | 36.48938 | -114.50731 | 20795 ft | 469 kts | 38° |
| 2026-05-03 22:24 | 36.51539 | -114.48267 | 21324 ft | 472 kts | 38° |
| 2026-05-03 22:25 | 36.54186 | -114.45820 | 21923 ft | 474 kts | 34° |
| 2026-05-03 22:25 | 36.56928 | -114.43599 | 22428 ft | 478 kts | 32° |
| 2026-05-03 22:25 | 36.59760 | -114.41407 | 22934 ft | 482 kts | 31° |
| 2026-05-03 22:25 | 36.62630 | -114.39194 | 23413 ft | 486 kts | 31° |
| 2026-05-03 22:26 | 36.65518 | -114.36962 | 23734 ft | 492 kts | 31° |
| 2026-05-03 22:26 | 36.68448 | -114.34694 | 24103 ft | 497 kts | 31° |
| 2026-05-03 22:26 | 36.71401 | -114.32404 | 24482 ft | 502 kts | 31° |
| 2026-05-03 22:26 | 36.74373 | -114.30097 | 24879 ft | 506 kts | 30° |
| 2026-05-03 22:27 | 36.77381 | -114.27757 | 25266 ft | 511 kts | 30° |
| 2026-05-03 22:27 | 36.80401 | -114.25406 | 25758 ft | 513 kts | 30° |
| 2026-05-03 22:27 | 36.83439 | -114.23038 | 26175 ft | 517 kts | 30° |
| 2026-05-03 22:27 | 36.86504 | -114.20648 | 26521 ft | 521 kts | 30° |
| 2026-05-03 22:28 | 36.89600 | -114.18230 | 26886 ft | 525 kts | 30° |
| 2026-05-03 22:28 | 36.92674 | -114.15828 | 27242 ft | 530 kts | 30° |
| 2026-05-03 22:28 | 36.95814 | -114.13372 | 27614 ft | 534 kts | 29° |
| 2026-05-03 22:28 | 36.98973 | -114.10900 | 27974 ft | 538 kts | 29° |
| 2026-05-03 22:29 | 37.02156 | -114.08404 | 28329 ft | 542 kts | 29° |
| 2026-05-03 22:29 | 37.05361 | -114.05890 | 28669 ft | 545 kts | 30° |
| 2026-05-03 22:29 | 37.08572 | -114.03366 | 29224 ft | 544 kts | 30° |
| 2026-05-03 22:29 | 37.11798 | -114.00831 | 29535 ft | 548 kts | 30° |
| 2026-05-03 22:30 | 37.15037 | -113.98281 | 29848 ft | 552 kts | 30° |
| 2026-05-03 22:30 | 37.18299 | -113.95710 | 30177 ft | 553 kts | 29° |
| 2026-05-03 22:30 | 37.21556 | -113.93140 | 30549 ft | 553 kts | 29° |
| 2026-05-03 22:30 | 37.24814 | -113.90566 | 30920 ft | 553 kts | 28° |
| 2026-05-03 22:31 | 37.28071 | -113.87992 | 31254 ft | 554 kts | 28° |
| 2026-05-03 22:31 | 37.31331 | -113.85413 | 31640 ft | 554 kts | 28° |
| 2026-05-03 22:31 | 37.34579 | -113.82839 | 32138 ft | 549 kts | 28° |
| 2026-05-03 22:31 | 37.37801 | -113.80283 | 32592 ft | 547 kts | 28° |
| 2026-05-03 22:32 | 37.41034 | -113.77720 | 32859 ft | 549 kts | 28° |
| 2026-05-03 22:32 | 37.44270 | -113.75150 | 33142 ft | 550 kts | 28° |
| 2026-05-03 22:32 | 37.47509 | -113.72575 | 33358 ft | 552 kts | 27° |
| 2026-05-03 22:32 | 37.50762 | -113.69986 | 33592 ft | 553 kts | 27° |
| 2026-05-03 22:33 | 37.53971 | -113.67428 | 33902 ft | 553 kts | 27° |
| 2026-05-03 22:33 | 37.57216 | -113.64838 | 34167 ft | 552 kts | 27° |
| 2026-05-03 22:33 | 37.60468 | -113.62241 | 34569 ft | 549 kts | 28° |
| 2026-05-03 22:33 | 37.63682 | -113.59670 | 34794 ft | 548 kts | 28° |
| 2026-05-03 22:34 | 37.66908 | -113.57090 | 34835 ft | 550 kts | 28° |
| 2026-05-03 22:34 | 37.73397 | -113.51909 | 34829 ft | 552 kts | 28° |
| 2026-05-03 22:35 | 37.79886 | -113.46718 | 34821 ft | 552 kts | 28° |
| 2026-05-03 22:35 | 37.86385 | -113.41509 | 34867 ft | 551 kts | 29° |
| 2026-05-03 22:36 | 37.92800 | -113.36352 | 34856 ft | 543 kts | 29° |
| 2026-05-03 22:36 | 37.99184 | -113.31212 | 34822 ft | 542 kts | 29° |
| 2026-05-03 22:37 | 38.05506 | -113.26115 | 34815 ft | 542 kts | 29° |
| 2026-05-03 22:37 | 38.11873 | -113.20969 | 34836 ft | 542 kts | 30° |
| 2026-05-03 22:38 | 38.18213 | -113.15831 | 34867 ft | 538 kts | 30° |
| 2026-05-03 22:38 | 38.24524 | -113.10707 | 34906 ft | 537 kts | 30° |
| 2026-05-03 22:39 | 38.30793 | -113.05609 | 34941 ft | 537 kts | 30° |
| 2026-05-03 22:39 | 38.37062 | -113.00501 | 34958 ft | 537 kts | 30° |
| 2026-05-03 22:40 | 38.43359 | -112.95368 | 34966 ft | 537 kts | 30° |
| 2026-05-03 22:40 | 38.49661 | -112.90223 | 34947 ft | 537 kts | 30° |
| 2026-05-03 22:41 | 38.55919 | -112.85102 | 34917 ft | 537 kts | 30° |
| 2026-05-03 22:41 | 38.62206 | -112.79945 | 34908 ft | 537 kts | 30° |
| 2026-05-03 22:41 | 38.65313 | -112.77389 | 34869 ft | 523 kts | 30° |
| 2026-05-03 22:42 | 38.68323 | -112.74908 | 34845 ft | 508 kts | 30° |
| 2026-05-03 22:42 | 38.74206 | -112.70062 | 34858 ft | 499 kts | 30° |
| 2026-05-03 22:43 | 38.80040 | -112.65256 | 34860 ft | 498 kts | 30° |
| 2026-05-03 22:43 | 38.85864 | -112.60447 | 34852 ft | 497 kts | 30° |
| 2026-05-03 22:44 | 38.91651 | -112.55657 | 34876 ft | 496 kts | 30° |
| 2026-05-03 22:44 | 38.97457 | -112.50837 | 34871 ft | 495 kts | 30° |
| 2026-05-03 22:45 | 39.03207 | -112.46055 | 34963 ft | 494 kts | 30° |
| 2026-05-03 22:45 | 39.08970 | -112.41253 | 34962 ft | 493 kts | 30° |
| 2026-05-03 22:46 | 39.14725 | -112.36449 | 34950 ft | 492 kts | 31° |
| 2026-05-03 22:46 | 39.20469 | -112.31646 | 34922 ft | 492 kts | 31° |
| 2026-05-03 22:47 | 39.26214 | -112.26830 | 34911 ft | 492 kts | 31° |
| 2026-05-03 22:47 | 39.31912 | -112.22045 | 34894 ft | 491 kts | 31° |
| 2026-05-03 22:48 | 39.37649 | -112.17220 | 34889 ft | 491 kts | 30° |
| 2026-05-03 22:48 | 39.43379 | -112.12396 | 34898 ft | 491 kts | 31° |
| 2026-05-03 22:49 | 39.49095 | -112.07562 | 34882 ft | 491 kts | 31° |
| 2026-05-03 22:49 | 39.54771 | -112.02754 | 34901 ft | 490 kts | 31° |
| 2026-05-03 22:50 | 39.60489 | -111.97903 | 34897 ft | 490 kts | 31° |
| 2026-05-03 22:50 | 39.66191 | -111.93057 | 34912 ft | 490 kts | 31° |
| 2026-05-03 22:51 | 39.71890 | -111.88204 | 34899 ft | 489 kts | 31° |
| 2026-05-03 22:51 | 39.77576 | -111.83352 | 34906 ft | 488 kts | 31° |
| 2026-05-03 22:52 | 39.83258 | -111.78493 | 34935 ft | 491 kts | 31° |
| 2026-05-03 22:52 | 39.89008 | -111.73572 | 34908 ft | 502 kts | 31° |
| 2026-05-03 22:53 | 39.94889 | -111.68529 | 34903 ft | 507 kts | 32° |
| 2026-05-03 22:53 | 40.00805 | -111.63437 | 34903 ft | 506 kts | 32° |
| 2026-05-03 22:54 | 40.06643 | -111.58399 | 34902 ft | 506 kts | 32° |
| 2026-05-03 22:54 | 40.12513 | -111.53322 | 34916 ft | 506 kts | 32° |
| 2026-05-03 22:55 | 40.18390 | -111.48237 | 34937 ft | 506 kts | 32° |
| 2026-05-03 22:55 | 40.24269 | -111.43140 | 34953 ft | 507 kts | 32° |
| 2026-05-03 22:56 | 40.30153 | -111.38025 | 34976 ft | 507 kts | 32° |
| 2026-05-03 22:56 | 40.36024 | -111.32910 | 34986 ft | 507 kts | 32° |
| 2026-05-03 22:57 | 40.41892 | -111.27781 | 34991 ft | 507 kts | 32° |
| 2026-05-03 22:57 | 40.47768 | -111.22639 | 34986 ft | 508 kts | 32° |
| 2026-05-03 22:58 | 40.53604 | -111.17523 | 34975 ft | 508 kts | 32° |
| 2026-05-03 22:58 | 40.59482 | -111.12358 | 34970 ft | 508 kts | 32° |
| 2026-05-03 22:59 | 40.65365 | -111.07178 | 34964 ft | 508 kts | 32° |
| 2026-05-03 22:59 | 40.71236 | -111.01997 | 34950 ft | 506 kts | 32° |
| 2026-05-03 23:00 | 40.77091 | -110.96826 | 34968 ft | 506 kts | 32° |
| 2026-05-03 23:00 | 40.82945 | -110.91639 | 34970 ft | 507 kts | 32° |
| 2026-05-03 23:01 | 40.88763 | -110.86467 | 34971 ft | 506 kts | 32° |
| 2026-05-03 23:01 | 40.93624 | -110.82139 | 34969 ft | 506 kts | 32° |
| 2026-05-03 23:02 | 40.99461 | -110.76933 | 34962 ft | 506 kts | 32° |
| 2026-05-03 23:02 | 41.05286 | -110.71727 | 34972 ft | 505 kts | 32° |
| 2026-05-03 23:03 | 41.11115 | -110.66505 | 34973 ft | 505 kts | 32° |
| 2026-05-03 23:03 | 41.16942 | -110.61275 | 34992 ft | 505 kts | 32° |
| 2026-05-03 23:04 | 41.22760 | -110.56042 | 35028 ft | 505 kts | 32° |
| 2026-05-03 23:04 | 41.28576 | -110.50799 | 35066 ft | 505 kts | 32° |
| 2026-05-03 23:05 | 41.34381 | -110.45554 | 35092 ft | 504 kts | 32° |
| 2026-05-03 23:05 | 41.39927 | -110.39823 | 35093 ft | 505 kts | 39° |
| 2026-05-03 23:06 | 41.45134 | -110.33584 | 35093 ft | 506 kts | 40° |
| 2026-05-03 23:06 | 41.50306 | -110.27230 | 34892 ft | 506 kts | 40° |
| 2026-05-03 23:07 | 41.55476 | -110.20859 | 34890 ft | 506 kts | 40° |
| 2026-05-03 23:07 | 41.60645 | -110.14493 | 34881 ft | 506 kts | 40° |
| 2026-05-03 23:08 | 41.65822 | -110.08111 | 34883 ft | 506 kts | 40° |
| 2026-05-03 23:08 | 41.71003 | -110.01714 | 34878 ft | 507 kts | 40° |
| 2026-05-03 23:09 | 41.76188 | -109.95296 | 34883 ft | 507 kts | 40° |
| 2026-05-03 23:09 | 41.81324 | -109.88923 | 34878 ft | 507 kts | 40° |
| 2026-05-03 23:10 | 41.86494 | -109.82493 | 34879 ft | 507 kts | 40° |
| 2026-05-03 23:10 | 41.91660 | -109.76052 | 34886 ft | 507 kts | 40° |
| 2026-05-03 23:11 | 41.96836 | -109.69585 | 34890 ft | 508 kts | 40° |
| 2026-05-03 23:11 | 42.02004 | -109.63115 | 34894 ft | 508 kts | 40° |
| 2026-05-03 23:12 | 42.07171 | -109.56628 | 34895 ft | 508 kts | 40° |
| 2026-05-03 23:12 | 42.12338 | -109.50127 | 34898 ft | 508 kts | 40° |
| 2026-05-03 23:13 | 42.17469 | -109.43654 | 34895 ft | 507 kts | 39° |
| 2026-05-03 23:13 | 42.22618 | -109.37144 | 34901 ft | 507 kts | 39° |
| 2026-05-03 23:14 | 42.27768 | -109.30619 | 34895 ft | 507 kts | 39° |
| 2026-05-03 23:14 | 42.32916 | -109.24081 | 34891 ft | 507 kts | 39° |
| 2026-05-03 23:15 | 42.38061 | -109.17532 | 34890 ft | 507 kts | 40° |
| 2026-05-03 23:15 | 42.43198 | -109.10975 | 34899 ft | 507 kts | 39° |
| 2026-05-03 23:16 | 42.48322 | -109.04419 | 34897 ft | 506 kts | 39° |
| 2026-05-03 23:16 | 42.53437 | -108.97861 | 34875 ft | 506 kts | 39° |
| 2026-05-03 23:17 | 42.58521 | -108.91328 | 34868 ft | 506 kts | 39° |
| 2026-05-03 23:17 | 42.63628 | -108.84750 | 34865 ft | 506 kts | 39° |
| 2026-05-03 23:18 | 42.68730 | -108.78166 | 34830 ft | 504 kts | 40° |
| 2026-05-03 23:18 | 42.71268 | -108.74882 | 34932 ft | 504 kts | 39° |
| 2026-05-03 23:18 | 42.73807 | -108.71592 | 34934 ft | 503 kts | 39° |
| 2026-05-03 23:19 | 42.78874 | -108.65016 | 34932 ft | 503 kts | 40° |
| 2026-05-03 23:19 | 42.83908 | -108.58469 | 34927 ft | 503 kts | 40° |
| 2026-05-03 23:20 | 42.88967 | -108.51873 | 34899 ft | 503 kts | 40° |
| 2026-05-03 23:20 | 42.94021 | -108.45269 | 34921 ft | 502 kts | 40° |
| 2026-05-03 23:21 | 42.99054 | -108.38676 | 34932 ft | 502 kts | 40° |
| 2026-05-03 23:21 | 43.04090 | -108.32063 | 34930 ft | 501 kts | 40° |
| 2026-05-03 23:22 | 43.11630 | -108.22133 | 34896 ft | 501 kts | 40° |
| 2026-05-03 23:22 | 43.16650 | -108.15504 | 34886 ft | 501 kts | 40° |
| 2026-05-03 23:23 | 43.21647 | -108.08885 | 34863 ft | 498 kts | 40° |
| 2026-05-03 23:23 | 43.26629 | -108.02272 | 34837 ft | 498 kts | 40° |
| 2026-05-03 23:24 | 43.31573 | -107.95696 | 34849 ft | 498 kts | 41° |
| 2026-05-03 23:24 | 43.36540 | -107.89072 | 34864 ft | 498 kts | 41° |
| 2026-05-03 23:25 | 43.41508 | -107.82429 | 34874 ft | 498 kts | 41° |
| 2026-05-03 23:25 | 43.46467 | -107.75784 | 34861 ft | 498 kts | 41° |
| 2026-05-03 23:26 | 43.51425 | -107.69124 | 34876 ft | 497 kts | 41° |
| 2026-05-03 23:26 | 43.56377 | -107.62456 | 34873 ft | 496 kts | 41° |
| 2026-05-03 23:27 | 43.61309 | -107.55798 | 34885 ft | 496 kts | 41° |
| 2026-05-03 23:27 | 43.66205 | -107.49174 | 34882 ft | 494 kts | 41° |
| 2026-05-03 23:28 | 43.71106 | -107.42524 | 34901 ft | 493 kts | 41° |
| 2026-05-03 23:28 | 43.75985 | -107.35888 | 34894 ft | 492 kts | 41° |
| 2026-05-03 23:29 | 43.80863 | -107.29243 | 34893 ft | 491 kts | 41° |
| 2026-05-03 23:29 | 43.85732 | -107.22591 | 34895 ft | 492 kts | 41° |
| 2026-05-03 23:30 | 43.90574 | -107.15959 | 34914 ft | 490 kts | 42° |
| 2026-05-03 23:30 | 43.95410 | -107.09317 | 34909 ft | 487 kts | 42° |
| 2026-05-03 23:31 | 44.00220 | -107.02700 | 34904 ft | 487 kts | 42° |
| 2026-05-03 23:31 | 44.05038 | -106.96055 | 34909 ft | 487 kts | 42° |
| 2026-05-03 23:32 | 44.09808 | -106.89459 | 34913 ft | 487 kts | 42° |
| 2026-05-03 23:32 | 44.14596 | -106.82821 | 34886 ft | 485 kts | 42° |
| 2026-05-03 23:33 | 44.19366 | -106.76192 | 34887 ft | 483 kts | 42° |
| 2026-05-03 23:33 | 44.24126 | -106.69562 | 34870 ft | 483 kts | 42° |
| 2026-05-03 23:34 | 44.28881 | -106.62923 | 34867 ft | 483 kts | 43° |
| 2026-05-03 23:34 | 44.33604 | -106.56310 | 34925 ft | 483 kts | 42° |
| 2026-05-03 23:35 | 44.38342 | -106.49663 | 34912 ft | 482 kts | 42° |
| 2026-05-03 23:35 | 44.43073 | -106.43007 | 34892 ft | 481 kts | 42° |
| 2026-05-03 23:36 | 44.47790 | -106.36357 | 34867 ft | 481 kts | 43° |
| 2026-05-03 23:36 | 44.52466 | -106.29746 | 34845 ft | 480 kts | 42° |
| 2026-05-03 23:37 | 44.57173 | -106.23077 | 34837 ft | 480 kts | 42° |
| 2026-05-03 23:37 | 44.61878 | -106.16395 | 34839 ft | 480 kts | 42° |
| 2026-05-03 23:38 | 44.66570 | -106.09713 | 34832 ft | 480 kts | 42° |
| 2026-05-03 23:38 | 44.71257 | -106.03023 | 34832 ft | 480 kts | 42° |
| 2026-05-03 23:39 | 44.75943 | -105.96318 | 34833 ft | 481 kts | 42° |
| 2026-05-03 23:39 | 44.80600 | -105.89639 | 34831 ft | 480 kts | 42° |
| 2026-05-03 23:40 | 44.85283 | -105.82906 | 34827 ft | 481 kts | 42° |
| 2026-05-03 23:40 | 44.89966 | -105.76155 | 34828 ft | 481 kts | 42° |
| 2026-05-03 23:41 | 44.94646 | -105.69391 | 34823 ft | 481 kts | 42° |
| 2026-05-03 23:41 | 44.99327 | -105.62611 | 34829 ft | 481 kts | 42° |
| 2026-05-03 23:42 | 45.03969 | -105.55870 | 34822 ft | 482 kts | 42° |
| 2026-05-03 23:42 | 45.08640 | -105.49070 | 34840 ft | 481 kts | 42° |
| 2026-05-03 23:43 | 45.13309 | -105.42255 | 34825 ft | 481 kts | 43° |
| 2026-05-03 23:43 | 45.17964 | -105.35446 | 34841 ft | 481 kts | 43° |
| 2026-05-03 23:44 | 45.22612 | -105.28628 | 34821 ft | 481 kts | 43° |
| 2026-05-03 23:44 | 45.27257 | -105.21798 | 34821 ft | 481 kts | 43° |
| 2026-05-03 23:45 | 45.31869 | -105.14999 | 34822 ft | 481 kts | 43° |
| 2026-05-03 23:45 | 45.36506 | -105.08147 | 34823 ft | 481 kts | 43° |
| 2026-05-03 23:46 | 45.41141 | -105.01279 | 34823 ft | 480 kts | 43° |
| 2026-05-03 23:46 | 45.45762 | -104.94414 | 34824 ft | 479 kts | 43° |
| 2026-05-03 23:47 | 45.50368 | -104.87554 | 34824 ft | 478 kts | 43° |
| 2026-05-03 23:47 | 45.54927 | -104.80747 | 34823 ft | 477 kts | 43° |
| 2026-05-03 23:48 | 45.59507 | -104.73895 | 34823 ft | 477 kts | 43° |
| 2026-05-03 23:48 | 45.64083 | -104.67030 | 34821 ft | 477 kts | 43° |
| 2026-05-03 23:49 | 45.68661 | -104.60143 | 34828 ft | 476 kts | 43° |
| 2026-05-03 23:49 | 45.72444 | -104.54438 | 34818 ft | 475 kts | 43° |
| 2026-05-03 23:50 | 45.76990 | -104.47568 | 34819 ft | 474 kts | 43° |
| 2026-05-03 23:50 | 45.81528 | -104.40694 | 34812 ft | 474 kts | 43° |
| 2026-05-03 23:51 | 45.86036 | -104.33848 | 34816 ft | 474 kts | 43° |
| 2026-05-03 23:51 | 45.90568 | -104.26945 | 34810 ft | 474 kts | 43° |
| 2026-05-03 23:52 | 45.95088 | -104.20042 | 34805 ft | 474 kts | 43° |
| 2026-05-03 23:52 | 45.99600 | -104.13138 | 34804 ft | 474 kts | 43° |
| 2026-05-03 23:53 | 46.04104 | -104.06228 | 34794 ft | 474 kts | 43° |
| 2026-05-03 23:53 | 46.08610 | -103.99295 | 34799 ft | 474 kts | 43° |
| 2026-05-03 23:54 | 46.13073 | -103.92410 | 34788 ft | 473 kts | 42° |
| 2026-05-03 23:54 | 46.17579 | -103.85445 | 34786 ft | 474 kts | 42° |
| 2026-05-03 23:55 | 46.22085 | -103.78460 | 34784 ft | 475 kts | 42° |
| 2026-05-03 23:55 | 46.26585 | -103.71465 | 34784 ft | 475 kts | 42° |
| 2026-05-03 23:56 | 46.31048 | -103.64509 | 34780 ft | 474 kts | 42° |
| 2026-05-03 23:56 | 46.35529 | -103.57508 | 34778 ft | 474 kts | 42° |
| 2026-05-03 23:57 | 46.40007 | -103.50495 | 34773 ft | 474 kts | 42° |
| 2026-05-03 23:57 | 46.44485 | -103.43463 | 34757 ft | 475 kts | 42° |
| 2026-05-03 23:58 | 46.48971 | -103.36400 | 34768 ft | 475 kts | 42° |
| 2026-05-03 23:58 | 46.53443 | -103.29340 | 34751 ft | 475 kts | 42° |
| 2026-05-03 23:59 | 46.57913 | -103.22264 | 34749 ft | 475 kts | 42° |
| 2026-05-03 23:59 | 46.62355 | -103.15213 | 34742 ft | 475 kts | 42° |
| 2026-05-04 00:00 | 46.66817 | -103.08115 | 34738 ft | 476 kts | 41° |
| 2026-05-04 00:00 | 46.71283 | -103.00991 | 34732 ft | 476 kts | 41° |
| 2026-05-04 00:01 | 46.75752 | -102.93842 | 34730 ft | 477 kts | 41° |
| 2026-05-04 00:01 | 46.80215 | -102.86684 | 34729 ft | 477 kts | 41° |
| 2026-05-04 00:02 | 46.84727 | -102.79610 | 34703 ft | 473 kts | 37° |
| 2026-05-04 00:02 | 46.89911 | -102.74004 | 34716 ft | 464 kts | 26° |
| 2026-05-04 00:03 | 46.95436 | -102.69096 | 34702 ft | 465 kts | 24° |
| 2026-05-04 00:03 | 47.01016 | -102.64299 | 34702 ft | 465 kts | 24° |
| 2026-05-04 00:04 | 47.06569 | -102.59506 | 34696 ft | 465 kts | 24° |
| 2026-05-04 00:04 | 47.12141 | -102.54654 | 34698 ft | 465 kts | 24° |
| 2026-05-04 00:05 | 47.17720 | -102.49773 | 34691 ft | 467 kts | 24° |
| 2026-05-04 00:05 | 47.23302 | -102.44874 | 34678 ft | 467 kts | 24° |
| 2026-05-04 00:06 | 47.28845 | -102.39998 | 34672 ft | 467 kts | 24° |
| 2026-05-04 00:06 | 47.34431 | -102.35074 | 34664 ft | 467 kts | 24° |
| 2026-05-04 00:07 | 47.40018 | -102.30138 | 34663 ft | 468 kts | 24° |
| 2026-05-04 00:07 | 47.45616 | -102.25178 | 34664 ft | 469 kts | 24° |
| 2026-05-04 00:08 | 47.51213 | -102.20206 | 34658 ft | 469 kts | 24° |
| 2026-05-04 00:08 | 47.56770 | -102.15257 | 34656 ft | 469 kts | 24° |
| 2026-05-04 00:09 | 47.62362 | -102.10264 | 34648 ft | 469 kts | 24° |
| 2026-05-04 00:09 | 47.67959 | -102.05256 | 34641 ft | 469 kts | 24° |
| 2026-05-04 00:10 | 47.73548 | -102.00242 | 34641 ft | 469 kts | 24° |
| 2026-05-04 00:10 | 47.79104 | -101.95244 | 34635 ft | 469 kts | 24° |
| 2026-05-04 00:11 | 47.84698 | -101.90199 | 34641 ft | 469 kts | 23° |
| 2026-05-04 00:11 | 47.90292 | -101.85141 | 34628 ft | 470 kts | 23° |
| 2026-05-04 00:12 | 47.95893 | -101.80066 | 34628 ft | 471 kts | 23° |
| 2026-05-04 00:12 | 48.01454 | -101.75014 | 34630 ft | 471 kts | 23° |
| 2026-05-04 00:13 | 48.07045 | -101.69920 | 34607 ft | 471 kts | 23° |
| 2026-05-04 00:13 | 48.12650 | -101.64802 | 34592 ft | 472 kts | 23° |
| 2026-05-04 00:14 | 48.18257 | -101.59666 | 34603 ft | 472 kts | 23° |
| 2026-05-04 00:14 | 48.23872 | -101.54512 | 34572 ft | 473 kts | 23° |
| 2026-05-04 00:15 | 48.29490 | -101.49340 | 34564 ft | 473 kts | 23° |
| 2026-05-04 00:15 | 48.35099 | -101.44162 | 34515 ft | 473 kts | 23° |
| 2026-05-04 00:16 | 48.40669 | -101.39008 | 34515 ft | 473 kts | 23° |
| 2026-05-04 00:16 | 48.46283 | -101.33800 | 34514 ft | 473 kts | 23° |
| 2026-05-04 00:17 | 48.51891 | -101.28582 | 34588 ft | 474 kts | 23° |
| 2026-05-04 00:17 | 48.57509 | -101.23342 | 34567 ft | 475 kts | 23° |
| 2026-05-04 00:18 | 48.63129 | -101.18088 | 34562 ft | 475 kts | 23° |
| 2026-05-04 00:18 | 48.68722 | -101.12843 | 34561 ft | 475 kts | 23° |
| 2026-05-04 00:19 | 48.74348 | -101.07554 | 34556 ft | 475 kts | 23° |
| 2026-05-04 00:19 | 48.79970 | -101.02254 | 34559 ft | 476 kts | 23° |
| 2026-05-04 00:20 | 48.85592 | -100.96941 | 34565 ft | 477 kts | 23° |
| 2026-05-04 00:20 | 48.91228 | -100.91602 | 34554 ft | 478 kts | 23° |
| 2026-05-04 00:21 | 48.96834 | -100.86274 | 34561 ft | 478 kts | 23° |
| 2026-05-04 00:21 | 49.02480 | -100.80896 | 34566 ft | 478 kts | 23° |
| 2026-05-04 00:22 | 49.08124 | -100.75504 | 34553 ft | 480 kts | 23° |
| 2026-05-04 00:22 | 49.13782 | -100.70080 | 34552 ft | 480 kts | 23° |
| 2026-05-04 00:23 | 49.19408 | -100.64672 | 34561 ft | 480 kts | 23° |
| 2026-05-04 00:23 | 49.25063 | -100.59223 | 34553 ft | 481 kts | 23° |
| 2026-05-04 00:24 | 49.30728 | -100.53751 | 34557 ft | 482 kts | 23° |
| 2026-05-04 00:24 | 49.36415 | -100.48242 | 34556 ft | 483 kts | 23° |
| 2026-05-04 00:25 | 49.42090 | -100.42727 | 34560 ft | 483 kts | 23° |
| 2026-05-04 00:25 | 49.47768 | -100.37195 | 34558 ft | 483 kts | 23° |
| 2026-05-04 00:26 | 49.53418 | -100.31676 | 34573 ft | 484 kts | 23° |
| 2026-05-04 00:26 | 49.59134 | -100.26083 | 34559 ft | 488 kts | 23° |
| 2026-05-04 00:27 | 49.64863 | -100.20451 | 34549 ft | 488 kts | 23° |
| 2026-05-04 00:27 | 49.70591 | -100.14805 | 34533 ft | 488 kts | 23° |
| 2026-05-04 00:28 | 49.76313 | -100.09150 | 34531 ft | 489 kts | 23° |
| 2026-05-04 00:28 | 49.82054 | -100.03466 | 34491 ft | 490 kts | 23° |
| 2026-05-04 00:29 | 49.87809 | -99.97747 | 34488 ft | 491 kts | 23° |
| 2026-05-04 00:29 | 49.93406 | -99.91555 | 34570 ft | 500 kts | 28° |
| 2026-05-04 00:30 | 49.98867 | -99.84846 | 34559 ft | 501 kts | 30° |